sensor_id;sensor_type;location;lat;lon;timestamp;pressure;altitude;pressure_sealevel;temperature;humidity
3294;BME280;1659;51.470;6.770;2024-03-23T00:54:36;100838.13;;;6.65;100.00
3294;BME280;1659;51.470;6.770;2024-03-23T00:57:02;100828.53;;;6.63;100.00
3294;BME280;1659;51.470;6.770;2024-03-23T00:59:34;100831.16;;;6.61;100.00
3294;BME280;1659;51.470;6.770;2024-03-23T01:02:04;100837.25;;;6.58;100.00
3294;BME280;1659;51.470;6.770;2024-03-23T01:04:34;100825.91;;;6.55;100.00
3294;BME280;1659;51.470;6.770;2024-03-23T01:07:00;100831.16;;;6.49;100.00
3294;BME280;1659;51.470;6.770;2024-03-23T01:09:28;100827.69;;;6.45;100.00
3294;BME280;1659;51.470;6.770;2024-03-23T01:11:55;100823.28;;;6.44;100.00
3294;BME280;1659;51.470;6.770;2024-03-23T01:14:21;100817.19;;;6.43;100.00
3294;BME280;1659;51.470;6.770;2024-03-23T01:16:49;100813.69;;;6.41;100.00
3294;BME280;1659;51.470;6.770;2024-03-23T01:19:16;100810.16;;;6.39;100.00
3294;BME280;1659;51.470;6.770;2024-03-23T01:22:14;100797.06;;;6.38;100.00
3294;BME280;1659;51.470;6.770;2024-03-23T01:24:46;100790.03;;;6.34;100.00
3294;BME280;1659;51.470;6.770;2024-03-23T01:27:13;100785.69;;;6.33;100.00
3294;BME280;1659;51.470;6.770;2024-03-23T01:29:40;100768.19;;;6.32;100.00
3294;BME280;1659;51.470;6.770;2024-03-23T01:32:06;100770.81;;;6.32;100.00
3294;BME280;1659;51.470;6.770;2024-03-23T01:34:33;100773.44;;;6.29;100.00
3294;BME280;1659;51.470;6.770;2024-03-23T01:37:04;100784.81;;;6.28;100.00
3294;BME280;1659;51.470;6.770;2024-03-23T01:39:32;100782.19;;;6.23;100.00
3294;BME280;1659;51.470;6.770;2024-03-23T01:41:57;100762.94;;;6.19;100.00
3294;BME280;1659;51.470;6.770;2024-03-23T01:44:25;100755.09;;;6.19;100.00
3294;BME280;1659;51.470;6.770;2024-03-23T01:46:51;100745.44;;;6.18;100.00
3294;BME280;1659;51.470;6.770;2024-03-23T01:49:20;100749.81;;;6.16;100.00
3294;BME280;1659;51.470;6.770;2024-03-23T01:51:46;100755.97;;;6.17;100.00
3294;BME280;1659;51.470;6.770;2024-03-23T01:54:15;100757.69;;;6.18;100.00
3294;BME280;1659;51.470;6.770;2024-03-23T01:57:09;100750.69;;;6.20;100.00
3294;BME280;1659;51.470;6.770;2024-03-23T01:59:52;100748.06;;;6.18;100.00
3294;BME280;1659;51.470;6.770;2024-03-23T02:02:18;100739.34;;;6.19;100.00
3294;BME280;1659;51.470;6.770;2024-03-23T02:04:45;100729.72;;;6.20;100.00
3294;BME280;1659;51.470;6.770;2024-03-23T02:07:11;100736.72;;;6.19;100.00
3294;BME280;1659;51.470;6.770;2024-03-23T02:09:37;100747.22;;;6.21;100.00
3294;BME280;1659;51.470;6.770;2024-03-23T02:12:03;100748.97;;;6.20;100.00
3294;BME280;1659;51.470;6.770;2024-03-23T02:14:30;100754.22;;;6.19;100.00
3294;BME280;1659;51.470;6.770;2024-03-23T02:16:59;100755.09;;;6.19;100.00
3294;BME280;1659;51.470;6.770;2024-03-23T02:19:25;100760.34;;;6.22;100.00
3294;BME280;1659;51.470;6.770;2024-03-23T02:21:51;100743.69;;;6.27;100.00
3294;BME280;1659;51.470;6.770;2024-03-23T02:24:18;100743.69;;;6.30;100.00
3294;BME280;1659;51.470;6.770;2024-03-23T02:26:44;100743.72;;;6.33;100.00
3294;BME280;1659;51.470;6.770;2024-03-23T02:29:13;100734.94;;;6.32;100.00
3294;BME280;1659;51.470;6.770;2024-03-23T02:31:39;100747.19;;;6.30;100.00
3294;BME280;1659;51.470;6.770;2024-03-23T02:34:05;100741.06;;;6.31;100.00
3294;BME280;1659;51.470;6.770;2024-03-23T02:36:31;100752.44;;;6.35;100.00
3294;BME280;1659;51.470;6.770;2024-03-23T02:38:57;100749.81;;;6.35;100.00
3294;BME280;1659;51.470;6.770;2024-03-23T02:41:24;100755.06;;;6.36;100.00
3294;BME280;1659;51.470;6.770;2024-03-23T02:43:51;100727.94;;;6.36;100.00
3294;BME280;1659;51.470;6.770;2024-03-23T02:46:17;100723.56;;;6.35;100.00
3294;BME280;1659;51.470;6.770;2024-03-23T02:48:43;100728.81;;;6.35;100.00
3294;BME280;1659;51.470;6.770;2024-03-23T02:51:10;100740.19;;;6.35;100.00
3294;BME280;1659;51.470;6.770;2024-03-23T02:53:35;100741.03;;;6.36;100.00
3294;BME280;1659;51.470;6.770;2024-03-23T02:56:02;100758.56;;;6.35;100.00
3294;BME280;1659;51.470;6.770;2024-03-23T02:58:29;100768.19;;;6.35;100.00
3294;BME280;1659;51.470;6.770;2024-03-23T03:00:56;100772.56;;;6.34;100.00
3294;BME280;1659;51.470;6.770;2024-03-23T03:03:21;100758.56;;;6.31;100.00
3294;BME280;1659;51.470;6.770;2024-03-23T03:05:49;100743.69;;;6.27;100.00
3294;BME280;1659;51.470;6.770;2024-03-23T03:08:19;100739.34;;;6.22;100.00
3294;BME280;1659;51.470;6.770;2024-03-23T03:10:46;100750.69;;;6.18;100.00
3294;BME280;1659;51.470;6.770;2024-03-23T03:13:11;100738.47;;;6.17;100.00
3294;BME280;1659;51.470;6.770;2024-03-23T03:15:41;100741.94;;;6.13;100.00
3294;BME280;1659;51.470;6.770;2024-03-23T03:18:06;100734.97;;;6.08;100.00
3294;BME280;1659;51.470;6.770;2024-03-23T03:20:33;100748.97;;;6.07;100.00
3294;BME280;1659;51.470;6.770;2024-03-23T03:23:00;100752.47;;;6.05;100.00
3294;BME280;1659;51.470;6.770;2024-03-23T03:25:26;100748.06;;;6.04;100.00
3294;BME280;1659;51.470;6.770;2024-03-23T03:27:52;100743.72;;;6.05;100.00
3294;BME280;1659;51.470;6.770;2024-03-23T03:30:18;100738.50;;;6.07;100.00
3294;BME280;1659;51.470;6.770;2024-03-23T03:32:45;100728.00;;;6.08;100.00
3294;BME280;1659;51.470;6.770;2024-03-23T03:35:12;100717.47;;;6.10;100.00
3294;BME280;1659;51.470;6.770;2024-03-23T03:37:37;100716.59;;;6.11;100.00
3294;BME280;1659;51.470;6.770;2024-03-23T03:40:05;100720.09;;;6.11;100.00
3294;BME280;1659;51.470;6.770;2024-03-23T03:42:34;100723.63;;;6.10;100.00
3294;BME280;1659;51.470;6.770;2024-03-23T03:45:00;100727.09;;;6.12;100.00
3294;BME280;1659;51.470;6.770;2024-03-23T03:47:26;100731.47;;;6.13;100.00
3294;BME280;1659;51.470;6.770;2024-03-23T03:49:54;100738.47;;;6.14;100.00
3294;BME280;1659;51.470;6.770;2024-03-23T03:52:19;100743.72;;;6.11;100.00
3294;BME280;1659;51.470;6.770;2024-03-23T03:54:46;100734.09;;;6.09;100.00
3294;BME280;1659;51.470;6.770;2024-03-23T03:57:11;100738.50;;;6.08;100.00
3294;BME280;1659;51.470;6.770;2024-03-23T03:59:38;100735.88;;;6.08;100.00
3294;BME280;1659;51.470;6.770;2024-03-23T04:02:03;100732.34;;;6.08;100.00
3294;BME280;1659;51.470;6.770;2024-03-23T04:04:30;100727.09;;;6.06;100.00
3294;BME280;1659;51.470;6.770;2024-03-23T04:06:59;100732.38;;;6.03;100.00
3294;BME280;1659;51.470;6.770;2024-03-23T04:09:26;100714.88;;;6.02;100.00
3294;BME280;1659;51.470;6.770;2024-03-23T04:11:51;100718.34;;;6.01;100.00
3294;BME280;1659;51.470;6.770;2024-03-23T04:14:18;100722.75;;;6.00;100.00
3294;BME280;1659;51.470;6.770;2024-03-23T04:16:43;100726.22;;;6.02;100.00
3294;BME280;1659;51.470;6.770;2024-03-23T04:19:10;100721.88;;;6.00;100.00
3294;BME280;1659;51.470;6.770;2024-03-23T04:21:36;100719.25;;;6.01;100.00
3294;BME280;1659;51.470;6.770;2024-03-23T04:24:04;100713.09;;;6.02;100.00
3294;BME280;1659;51.470;6.770;2024-03-23T04:26:30;100706.13;;;6.03;100.00
3294;BME280;1659;51.470;6.770;2024-03-23T04:28:56;100707.88;;;6.04;100.00
3294;BME280;1659;51.470;6.770;2024-03-23T04:31:22;100710.50;;;6.04;100.00
3294;BME280;1659;51.470;6.770;2024-03-23T04:33:48;100713.13;;;6.04;100.00
3294;BME280;1659;51.470;6.770;2024-03-23T04:36:14;100702.63;;;6.02;100.00
3294;BME280;1659;51.470;6.770;2024-03-23T04:38:40;100697.38;;;6.04;100.00
3294;BME280;1659;51.470;6.770;2024-03-23T04:41:08;100700.88;;;6.03;100.00
3294;BME280;1659;51.470;6.770;2024-03-23T04:43:35;100702.63;;;6.02;100.00
3294;BME280;1659;51.470;6.770;2024-03-23T04:46:02;100688.63;;;6.02;100.00
3294;BME280;1659;51.470;6.770;2024-03-23T04:48:28;100696.50;;;6.02;100.00
3294;BME280;1659;51.470;6.770;2024-03-23T04:50:55;100693.00;;;6.04;100.00
3294;BME280;1659;51.470;6.770;2024-03-23T04:53:23;100693.03;;;6.03;100.00
3294;BME280;1659;51.470;6.770;2024-03-23T04:55:53;100692.13;;;6.04;100.00
3294;BME280;1659;51.470;6.770;2024-03-23T04:58:21;100694.75;;;6.05;100.00
3294;BME280;1659;51.470;6.770;2024-03-23T05:00:46;100702.63;;;6.05;100.00
3294;BME280;1659;51.470;6.770;2024-03-23T05:03:13;100704.38;;;6.05;100.00
3294;BME280;1659;51.470;6.770;2024-03-23T05:05:38;100700.88;;;6.06;100.00
3294;BME280;1659;51.470;6.770;2024-03-23T05:08:06;100705.25;;;6.05;100.00
3294;BME280;1659;51.470;6.770;2024-03-23T05:10:32;100706.13;;;6.06;100.00
3294;BME280;1659;51.470;6.770;2024-03-23T05:12:59;100699.13;;;6.05;100.00
3294;BME280;1659;51.470;6.770;2024-03-23T05:15:26;100707.88;;;6.04;100.00
3294;BME280;1659;51.470;6.770;2024-03-23T05:17:52;100707.00;;;6.03;100.00
3294;BME280;1659;51.470;6.770;2024-03-23T05:20:19;100708.72;;;6.04;100.00
3294;BME280;1659;51.470;6.770;2024-03-23T05:22:46;100720.97;;;6.05;100.00
3294;BME280;1659;51.470;6.770;2024-03-23T05:25:11;100707.88;;;6.04;100.00
3294;BME280;1659;51.470;6.770;2024-03-23T05:27:38;100720.13;;;6.02;100.00
3294;BME280;1659;51.470;6.770;2024-03-23T05:30:05;100725.34;;;6.00;100.00
3294;BME280;1659;51.470;6.770;2024-03-23T05:32:33;100727.13;;;6.00;100.00
3294;BME280;1659;51.470;6.770;2024-03-23T05:34:59;100734.97;;;5.98;100.00
3294;BME280;1659;51.470;6.770;2024-03-23T05:37:25;100723.63;;;5.96;100.00
3294;BME280;1659;51.470;6.770;2024-03-23T05:39:51;100722.72;;;5.96;100.00
3294;BME280;1659;51.470;6.770;2024-03-23T05:42:18;100721.00;;;5.96;100.00
3294;BME280;1659;51.470;6.770;2024-03-23T05:44:44;100720.09;;;5.96;100.00
3294;BME280;1659;51.470;6.770;2024-03-23T05:47:11;100720.09;;;5.96;100.00
3294;BME280;1659;51.470;6.770;2024-03-23T05:49:39;100722.72;;;5.96;100.00
3294;BME280;1659;51.470;6.770;2024-03-23T05:52:07;100725.34;;;5.96;100.00
3294;BME280;1659;51.470;6.770;2024-03-23T05:54:33;100731.50;;;5.98;100.00
3294;BME280;1659;51.470;6.770;2024-03-23T05:56:59;100725.34;;;5.96;100.00
3294;BME280;1659;51.470;6.770;2024-03-23T05:59:25;100726.22;;;5.93;100.00
3294;BME280;1659;51.470;6.770;2024-03-23T06:01:52;100726.19;;;5.87;100.00
3294;BME280;1659;51.470;6.770;2024-03-23T06:04:17;100731.47;;;5.82;100.00
3294;BME280;1659;51.470;6.770;2024-03-23T06:06:45;100733.19;;;5.76;100.00
3294;BME280;1659;51.470;6.770;2024-03-23T06:09:11;100742.81;;;5.72;100.00
3294;BME280;1659;51.470;6.770;2024-03-23T06:11:37;100745.44;;;5.72;100.00
3294;BME280;1659;51.470;6.770;2024-03-23T06:14:03;100744.56;;;5.70;100.00
3294;BME280;1659;51.470;6.770;2024-03-23T06:16:30;100734.06;;;5.70;100.00
3294;BME280;1659;51.470;6.770;2024-03-23T06:18:56;100743.66;;;5.70;100.00
3294;BME280;1659;51.470;6.770;2024-03-23T06:21:23;100741.03;;;5.70;100.00
3294;BME280;1659;51.470;6.770;2024-03-23T06:23:52;100735.81;;;5.71;100.00
3294;BME280;1659;51.470;6.770;2024-03-23T06:26:19;100738.44;;;5.74;100.00
3294;BME280;1659;51.470;6.770;2024-03-23T06:28:44;100740.19;;;5.78;100.00
3294;BME280;1659;51.470;6.770;2024-03-23T06:31:11;100739.34;;;5.84;100.00
3294;BME280;1659;51.470;6.770;2024-03-23T06:33:37;100740.22;;;5.91;100.00
3294;BME280;1659;51.470;6.770;2024-03-23T06:36:05;100739.31;;;5.95;100.00
3294;BME280;1659;51.470;6.770;2024-03-23T06:38:30;100745.47;;;6.01;100.00
3294;BME280;1659;51.470;6.770;2024-03-23T06:40:58;100742.84;;;6.09;100.00
3294;BME280;1659;51.470;6.770;2024-03-23T06:43:24;100748.09;;;6.15;100.00
3294;BME280;1659;51.470;6.770;2024-03-23T06:45:54;100745.44;;;6.23;100.00
3294;BME280;1659;51.470;6.770;2024-03-23T06:48:20;100735.84;;;6.33;100.00
3294;BME280;1659;51.470;6.770;2024-03-23T06:50:47;100740.19;;;6.38;100.00
3294;BME280;1659;51.470;6.770;2024-03-23T06:53:13;100741.91;;;6.47;100.00
3294;BME280;1659;51.470;6.770;2024-03-23T06:55:39;100738.34;;;6.62;100.00
3294;BME280;1659;51.470;6.770;2024-03-23T06:58:07;100737.44;;;6.80;100.00
3294;BME280;1659;51.470;6.770;2024-03-23T07:00:35;100738.25;;;6.96;100.00
3294;BME280;1659;51.470;6.770;2024-03-23T07:03:01;100738.16;;;7.16;100.00
3294;BME280;1659;51.470;6.770;2024-03-23T07:05:29;100743.31;;;7.33;100.00
3294;BME280;1659;51.470;6.770;2024-03-23T07:07:54;100735.28;;;7.53;100.00
3294;BME280;1659;51.470;6.770;2024-03-23T07:10:21;100738.66;;;7.77;100.00
3294;BME280;1659;51.470;6.770;2024-03-23T07:12:47;100739.38;;;7.96;100.00
3294;BME280;1659;51.470;6.770;2024-03-23T07:15:15;100733.88;;;8.20;100.00
3294;BME280;1659;51.470;6.770;2024-03-23T07:17:41;100737.94;;;8.55;100.00
3294;BME280;1659;51.470;6.770;2024-03-23T07:20:08;100741.09;;;8.86;100.00
3294;BME280;1659;51.470;6.770;2024-03-23T07:22:35;100740.69;;;9.19;100.00
3294;BME280;1659;51.470;6.770;2024-03-23T07:25:02;100737.59;;;9.53;100.00
3294;BME280;1659;51.470;6.770;2024-03-23T07:27:28;100733.66;;;9.78;100.00
3294;BME280;1659;51.470;6.770;2024-03-23T07:29:55;100731.50;;;10.04;100.00
3294;BME280;1659;51.470;6.770;2024-03-23T07:32:22;100735.41;;;10.31;100.00
3294;BME280;1659;51.470;6.770;2024-03-23T07:34:48;100726.47;;;10.39;100.00
3294;BME280;1659;51.470;6.770;2024-03-23T07:37:14;100719.72;;;10.71;100.00
3294;BME280;1659;51.470;6.770;2024-03-23T07:39:41;100729.81;;;10.94;100.00
3294;BME280;1659;51.470;6.770;2024-03-23T07:42:06;100730.59;;;11.00;100.00
3294;BME280;1659;51.470;6.770;2024-03-23T07:44:33;100731.34;;;11.06;100.00
3294;BME280;1659;51.470;6.770;2024-03-23T07:46:59;100730.09;;;11.23;100.00
3294;BME280;1659;51.470;6.770;2024-03-23T07:49:27;100733.38;;;11.34;100.00
3294;BME280;1659;51.470;6.770;2024-03-23T07:51:53;100732.41;;;11.37;100.00
3294;BME280;1659;51.470;6.770;2024-03-23T07:54:19;100737.66;;;11.40;100.00
3294;BME280;1659;51.470;6.770;2024-03-23T07:56:45;100733.56;;;11.64;100.00
3294;BME280;1659;51.470;6.770;2024-03-23T07:59:11;100727.88;;;11.79;100.00
3294;BME280;1659;51.470;6.770;2024-03-23T08:01:37;100739.53;;;11.72;100.00
3294;BME280;1659;51.470;6.770;2024-03-23T08:04:03;100732.25;;;11.82;100.00
3294;BME280;1659;51.470;6.770;2024-03-23T08:06:30;100738.38;;;11.84;100.00
3294;BME280;1659;51.470;6.770;2024-03-23T08:08:57;100733.66;;;11.97;100.00
3294;BME280;1659;51.470;6.770;2024-03-23T08:11:25;100733.66;;;11.97;100.00
3294;BME280;1659;51.470;6.770;2024-03-23T08:13:51;100746.88;;;11.98;100.00
3294;BME280;1659;51.470;6.770;2024-03-23T08:16:17;100746.66;;;12.07;100.00
3294;BME280;1659;51.470;6.770;2024-03-23T08:18:44;100746.69;;;12.06;100.00
3294;BME280;1659;51.470;6.770;2024-03-23T08:21:09;100741.16;;;12.15;100.00
3294;BME280;1659;51.470;6.770;2024-03-23T08:23:37;100743.56;;;12.24;100.00
3294;BME280;1659;51.470;6.770;2024-03-23T08:26:04;100749.91;;;12.19;100.00
3294;BME280;1659;51.470;6.770;2024-03-23T08:28:31;100746.00;;;11.98;100.00
3294;BME280;1659;51.470;6.770;2024-03-23T08:31:00;100749.03;;;11.81;100.00
3294;BME280;1659;51.470;6.770;2024-03-23T08:33:26;100740.47;;;11.71;100.00
3294;BME280;1659;51.470;6.770;2024-03-23T08:35:53;100748.25;;;11.38;100.00
3294;BME280;1659;51.470;6.770;2024-03-23T08:38:20;100748.13;;;11.04;100.00
3294;BME280;1659;51.470;6.770;2024-03-23T08:40:47;100757.69;;;10.66;100.00
3294;BME280;1659;51.470;6.770;2024-03-23T08:43:14;100759.56;;;10.09;100.00
3294;BME280;1659;51.470;6.770;2024-03-23T08:45:39;100768.22;;;9.63;100.00
3294;BME280;1659;51.470;6.770;2024-03-23T08:48:06;100761.66;;;9.30;100.00
3294;BME280;1659;51.470;6.770;2024-03-23T08:50:32;100768.03;;;9.12;100.00
3294;BME280;1659;51.470;6.770;2024-03-23T08:52:59;100771.59;;;9.09;100.00
3294;BME280;1659;51.470;6.770;2024-03-23T08:55:24;100768.88;;;9.14;100.00
3294;BME280;1659;51.470;6.770;2024-03-23T08:57:52;100763.34;;;9.34;100.00
3294;BME280;1659;51.470;6.770;2024-03-23T09:00:18;100763.81;;;9.63;100.00
3294;BME280;1659;51.470;6.770;2024-03-23T09:02:47;100765.81;;;10.04;100.00
3294;BME280;1659;51.470;6.770;2024-03-23T09:05:12;100756.09;;;10.57;100.00
3294;BME280;1659;51.470;6.770;2024-03-23T09:07:39;100748.59;;;11.23;100.00
3294;BME280;1659;51.470;6.770;2024-03-23T09:10:06;100751.66;;;11.82;100.00
3294;BME280;1659;51.470;6.770;2024-03-23T09:12:33;100753.19;;;12.28;100.00
3294;BME280;1659;51.470;6.770;2024-03-23T09:15:00;100750.91;;;12.79;100.00
3294;BME280;1659;51.470;6.770;2024-03-23T09:17:27;100758.66;;;13.18;100.00
3294;BME280;1659;51.470;6.770;2024-03-23T09:19:52;100752.16;;;13.28;100.00
3294;BME280;1659;51.470;6.770;2024-03-23T09:22:19;100750.03;;;13.10;100.00
3294;BME280;1659;51.470;6.770;2024-03-23T09:24:44;100754.91;;;12.62;100.00
3294;BME280;1659;51.470;6.770;2024-03-23T09:27:11;100749.88;;;12.53;100.00
3294;BME280;1659;51.470;6.770;2024-03-23T09:29:37;100753.09;;;12.64;100.00
3294;BME280;1659;51.470;6.770;2024-03-23T09:32:05;100752.31;;;12.26;100.00
3294;BME280;1659;51.470;6.770;2024-03-23T09:34:31;100757.63;;;11.92;100.00
3294;BME280;1659;51.470;6.770;2024-03-23T09:36:57;100755.84;;;11.55;100.00
3294;BME280;1659;51.470;6.770;2024-03-23T09:39:23;100757.34;;;11.26;100.00
3294;BME280;1659;51.470;6.770;2024-03-23T09:41:50;100754.59;;;11.31;100.00
3294;BME280;1659;51.470;6.770;2024-03-23T09:44:15;100752.22;;;11.58;100.00
3294;BME280;1659;51.470;6.770;2024-03-23T09:46:42;100751.25;;;11.23;100.00
3294;BME280;1659;51.470;6.770;2024-03-23T09:49:09;100755.31;;;10.95;100.00
3294;BME280;1659;51.470;6.770;2024-03-23T09:51:36;100753.56;;;10.98;100.00
3294;BME280;1659;51.470;6.770;2024-03-23T09:54:02;100747.06;;;11.12;100.00
3294;BME280;1659;51.470;6.770;2024-03-23T09:56:29;100730.63;;;11.76;100.00
3294;BME280;1659;51.470;6.770;2024-03-23T09:59:00;100725.88;;;12.58;100.00
3294;BME280;1659;51.470;6.770;2024-03-23T10:01:27;100715.56;;;13.10;100.00
3294;BME280;1659;51.470;6.770;2024-03-23T10:03:52;100716.53;;;13.07;100.00
3294;BME280;1659;51.470;6.770;2024-03-23T10:06:22;100709.53;;;13.34;100.00
3294;BME280;1659;51.470;6.770;2024-03-23T10:08:50;100717.06;;;13.48;100.00
3294;BME280;1659;51.470;6.770;2024-03-23T10:11:17;100701.34;;;13.95;100.00
3294;BME280;1659;51.470;6.770;2024-03-23T10:13:43;100691.66;;;14.45;100.00
3294;BME280;1659;51.470;6.770;2024-03-23T10:16:11;100693.59;;;14.90;100.00
3294;BME280;1659;51.470;6.770;2024-03-23T10:18:37;100694.91;;;15.02;100.00
3294;BME280;1659;51.470;6.770;2024-03-23T10:21:08;100706.72;;;14.95;100.00
3294;BME280;1659;51.470;6.770;2024-03-23T10:23:36;100716.31;;;14.75;100.00
3294;BME280;1659;51.470;6.770;2024-03-23T10:26:13;100723.66;;;14.16;100.00
3294;BME280;1659;51.470;6.770;2024-03-23T10:28:50;100720.06;;;13.37;100.00
3294;BME280;1659;51.470;6.770;2024-03-23T10:31:18;100726.66;;;12.61;99.52
3294;BME280;1659;51.470;6.770;2024-03-23T10:33:44;100749.47;;;12.00;100.00
3294;BME280;1659;51.470;6.770;2024-03-23T10:36:11;100748.34;;;11.33;100.00
3294;BME280;1659;51.470;6.770;2024-03-23T10:38:40;100773.91;;;10.47;99.99
3294;BME280;1659;51.470;6.770;2024-03-23T10:41:08;100796.31;;;9.66;98.72
3294;BME280;1659;51.470;6.770;2024-03-23T10:43:36;100776.19;;;8.92;100.00
3294;BME280;1659;51.470;6.770;2024-03-23T10:46:03;100794.25;;;8.40;100.00
3294;BME280;1659;51.470;6.770;2024-03-23T10:48:28;100790.19;;;8.04;100.00
3294;BME280;1659;51.470;6.770;2024-03-23T10:50:55;100796.50;;;7.80;100.00
3294;BME280;1659;51.470;6.770;2024-03-23T10:53:21;100790.47;;;7.64;100.00
3294;BME280;1659;51.470;6.770;2024-03-23T10:55:53;100783.53;;;7.52;100.00
3294;BME280;1659;51.470;6.770;2024-03-23T10:58:23;100788.78;;;7.52;100.00
3294;BME280;1659;51.470;6.770;2024-03-23T11:00:50;100781.59;;;7.79;100.00
3294;BME280;1659;51.470;6.770;2024-03-23T11:03:34;100778.63;;;8.22;100.00
3294;BME280;1659;51.470;6.770;2024-03-23T11:06:02;100761.47;;;8.72;100.00
3294;BME280;1659;51.470;6.770;2024-03-23T11:08:33;100763.13;;;9.49;100.00
3294;BME280;1659;51.470;6.770;2024-03-23T11:11:19;100758.59;;;10.13;100.00
3294;BME280;1659;51.470;6.770;2024-03-23T11:13:45;100752.84;;;10.43;100.00
3294;BME280;1659;51.470;6.770;2024-03-23T11:16:15;100749.63;;;10.73;100.00
3294;BME280;1659;51.470;6.770;2024-03-23T11:18:42;100748.41;;;11.30;100.00
3294;BME280;1659;51.470;6.770;2024-03-23T11:21:09;100738.31;;;11.87;100.00
3294;BME280;1659;51.470;6.770;2024-03-23T11:23:34;100747.75;;;12.33;100.00
3294;BME280;1659;51.470;6.770;2024-03-23T11:26:01;100728.41;;;12.62;100.00
3294;BME280;1659;51.470;6.770;2024-03-23T11:28:28;100730.88;;;13.00;100.00
3294;BME280;1659;51.470;6.770;2024-03-23T11:30:54;100742.84;;;13.45;100.00
3294;BME280;1659;51.470;6.770;2024-03-23T11:33:20;100747.56;;;13.91;100.00
3294;BME280;1659;51.470;6.770;2024-03-23T11:35:46;100726.41;;;14.40;100.00
3294;BME280;1659;51.470;6.770;2024-03-23T11:38:13;100721.41;;;14.81;100.00
3294;BME280;1659;51.470;6.770;2024-03-23T11:40:40;100711.31;;;15.37;100.00
3294;BME280;1659;51.470;6.770;2024-03-23T11:43:07;100721.91;;;15.60;100.00
3294;BME280;1659;51.470;6.770;2024-03-23T11:45:38;100710.75;;;15.73;100.00
3294;BME280;1659;51.470;6.770;2024-03-23T11:48:06;100703.47;;;15.78;100.00
3294;BME280;1659;51.470;6.770;2024-03-23T11:50:34;100712.09;;;15.39;100.00
3294;BME280;1659;51.470;6.770;2024-03-23T11:53:14;100725.47;;;15.15;100.00
3294;BME280;1659;51.470;6.770;2024-03-23T11:55:46;100715.94;;;14.61;98.07
3294;BME280;1659;51.470;6.770;2024-03-23T11:58:12;100726.50;;;13.85;95.49
3294;BME280;1659;51.470;6.770;2024-03-23T12:00:41;100735.28;;;13.01;92.45
3294;BME280;1659;51.470;6.770;2024-03-23T12:03:06;100739.03;;;12.28;93.34
3294;BME280;1659;51.470;6.770;2024-03-23T12:05:34;100729.03;;;11.69;93.89
3294;BME280;1659;51.470;6.770;2024-03-23T12:08:20;100747.75;;;11.22;93.37
3294;BME280;1659;51.470;6.770;2024-03-23T12:10:48;100738.00;;;11.23;97.72
3294;BME280;1659;51.470;6.770;2024-03-23T12:13:21;100730.31;;;11.51;100.00
3294;BME280;1659;51.470;6.770;2024-03-23T12:15:50;100716.69;;;11.68;99.85
3294;BME280;1659;51.470;6.770;2024-03-23T12:18:16;100725.22;;;11.79;100.00
3294;BME280;1659;51.470;6.770;2024-03-23T12:20:42;100731.78;;;12.02;100.00
3294;BME280;1659;51.470;6.770;2024-03-23T12:23:09;100724.16;;;12.24;98.40
3294;BME280;1659;51.470;6.770;2024-03-23T12:25:37;100712.63;;;12.58;97.15
3294;BME280;1659;51.470;6.770;2024-03-23T12:28:03;100720.72;;;12.84;95.04
3294;BME280;1659;51.470;6.770;2024-03-23T12:30:31;100713.22;;;13.29;95.81
3294;BME280;1659;51.470;6.770;2024-03-23T12:32:58;100733.94;;;13.47;93.13
3294;BME280;1659;51.470;6.770;2024-03-23T12:35:25;100715.81;;;13.30;89.75
3294;BME280;1659;51.470;6.770;2024-03-23T12:37:50;100723.03;;;12.97;90.25
3294;BME280;1659;51.470;6.770;2024-03-23T12:40:17;100715.16;;;12.62;90.15
3294;BME280;1659;51.470;6.770;2024-03-23T12:42:42;100716.59;;;12.43;91.95
3294;BME280;1659;51.470;6.770;2024-03-23T12:45:09;100715.50;;;12.17;93.88
3294;BME280;1659;51.470;6.770;2024-03-23T12:47:35;100728.16;;;11.68;93.56
3294;BME280;1659;51.470;6.770;2024-03-23T12:50:03;100728.75;;;11.03;91.56
3294;BME280;1659;51.470;6.770;2024-03-23T12:52:28;100748.47;;;10.42;92.33
3294;BME280;1659;51.470;6.770;2024-03-23T12:54:55;100751.25;;;9.78;91.06
3294;BME280;1659;51.470;6.770;2024-03-23T12:57:22;100758.06;;;9.34;91.20
3294;BME280;1659;51.470;6.770;2024-03-23T12:59:49;100753.53;;;9.43;96.32
3294;BME280;1659;51.470;6.770;2024-03-23T13:02:17;100766.91;;;9.89;96.80
3294;BME280;1659;51.470;6.770;2024-03-23T13:04:45;100761.38;;;10.06;97.07
3294;BME280;1659;51.470;6.770;2024-03-23T13:07:12;100766.81;;;9.96;96.80
3294;BME280;1659;51.470;6.770;2024-03-23T13:09:38;100750.25;;;9.85;97.45
3294;BME280;1659;51.470;6.770;2024-03-23T13:12:04;100757.72;;;9.58;95.83
3294;BME280;1659;51.470;6.770;2024-03-23T13:14:31;100743.97;;;9.35;97.49
3294;BME280;1659;51.470;6.770;2024-03-23T13:16:56;100721.47;;;9.12;98.73
3294;BME280;1659;51.470;6.770;2024-03-23T13:19:23;100712.75;;;9.07;100.00
3294;BME280;1659;51.470;6.770;2024-03-23T13:21:52;100719.78;;;9.05;100.00
3294;BME280;1659;51.470;6.770;2024-03-23T13:24:22;100717.19;;;9.02;100.00
3294;BME280;1659;51.470;6.770;2024-03-23T13:26:49;100706.69;;;8.99;100.00
3294;BME280;1659;51.470;6.770;2024-03-23T13:29:16;100709.84;;;9.24;100.00
3294;BME280;1659;51.470;6.770;2024-03-23T13:31:41;100722.03;;;9.33;100.00
3294;BME280;1659;51.470;6.770;2024-03-23T13:34:08;100713.50;;;9.15;99.28
3294;BME280;1659;51.470;6.770;2024-03-23T13:36:34;100718.06;;;9.04;99.43
3294;BME280;1659;51.470;6.770;2024-03-23T13:39:01;100709.47;;;8.88;99.00
3294;BME280;1659;51.470;6.770;2024-03-23T13:41:28;100712.25;;;8.77;98.07
3294;BME280;1659;51.470;6.770;2024-03-23T13:43:54;100725.34;;;8.80;97.82
3294;BME280;1659;51.470;6.770;2024-03-23T13:46:20;100721.34;;;9.21;98.88
3294;BME280;1659;51.470;6.770;2024-03-23T13:48:47;100705.09;;;10.04;98.82
3294;BME280;1659;51.470;6.770;2024-03-23T13:51:12;100699.09;;;10.89;95.43
3294;BME280;1659;51.470;6.770;2024-03-23T13:53:39;100696.56;;;11.62;90.83
3294;BME280;1659;51.470;6.770;2024-03-23T13:56:05;100691.03;;;12.40;89.99
3294;BME280;1659;51.470;6.770;2024-03-23T13:58:33;100692.19;;;12.93;86.41
3294;BME280;1659;51.470;6.770;2024-03-23T14:00:59;100697.97;;;13.37;85.86